x

Diamond Shoals (41025) Wave Buoy

11:50 - Sat 23rd Sep 2017 All times are EDT. -4 hours from GMT.

  • Sig Wave height 6.6ft
  • Swell Direction
  • Peak Period 15s
  • Average Period 8s
  • Wind
    18mph, 22mph gusts
  • Sea Temp 75°f
  • Aire Temp 73°f
  • Sea Pressure 1016.4mb
  • Diamond Shoals
  • Diamond Shoals

More Historic Weather Station data

Upgrade to MSW Pro to gain access to the past 30 days of data for over 8000 Wavebouys and Weather Stations around the globe.

Join

Comparision Forecast

View Surf forecast
   
sáb 09/23 11:50 6.5ft 15s 8s 18 22 mph 1016.4mb 75f 73f
10:50 7ft 11s 8s 18 20 mph 1016.7mb 75f 73f
9:50 7.5ft 15s 8s 18 22 mph 1016.5mb 75f 73f
8:50 8ft 13s 9s 16 18 mph 1016.9mb 75f 73f
7:50 7ft 12s 9s 16 18 mph 1016.8mb 76f 74f
6:50 7ft 14s 10s 13 18 mph 1016.6mb 76f 75f
5:50 6ft 12s 9s 13 16 mph 1016.2mb 76f 75f
4:50 6.5ft 11s 10s 13 16 mph 1016.2mb 76f 76f
3:50 6.5ft 13s 10s 11 13 mph 1016.2mb 77f 76f
2:50 6ft 13s 10s 9 11 mph 1016.6mb 77f 77f
1:50 6ft 13s 10s 7 9 mph 1016.7mb 77f 76f
12:50 7ft 11s 10s 11 13 mph 1017mb 77f 76f
11:50 8ft 13s 10s 11 11 mph 1017.1mb 76f 76f
10:50 8.5ft 11s 10s 11 11 mph 1017.1mb 76f 76f
9:50 7.5ft 12s 10s 7 9 mph 1016.9mb 76f 76f
8:50 8ft 14s 11s 4 4 mph 1016.4mb 76f 77f
7:50 7ft 14s 10s 4 4 mph 1016.2mb 76f 76f
6:50 7.5ft 13s 10s 4 7 mph 1016mb 76f 75f
5:50 6.5ft 13s 10s 2 4 mph 1015.5mb 76f 75f
4:50 6.5ft 15s 10s 4 7 mph 1015.3mb 76f 76f
3:50 7ft 15s 10s 2 4 mph 1015.5mb 77f 76f
2:50 7.5ft 15s 10s 4 4 mph 1015.9mb 77f 77f
1:50 6ft 12s 9s 2 4 mph 1016.2mb 77f 77f
12:50 6.5ft 11s 10s 4 7 mph 1015.9mb 77f 77f
vie 09/22 11:50 6ft 11s 9s 2 4 mph 1016.1mb 77f 77f
10:50 6ft 12s 9s 2 4 mph 1015.9mb 78f 78f
9:50 6ft 11s 9s 2 4 mph 1016mb 78f 78f
8:50 6ft 12s 9s 4 7 mph 1015.9mb 78f 77f
7:50 6ft 12s 9s 4 7 mph 1015.7mb 78f 78f
6:50 6ft 11s 8s 4 7 mph 1015.3mb 79f 78f
5:50 5.5ft 13s 8s 4 7 mph 1015.6mb 79f 78f
4:50 5.5ft 11s 8s 2 4 mph 1015.4mb 80f 78f
3:50 6ft 11s 9s 4 4 mph 1015.8mb 79f 78f
2:50 6ft 11s 8s 4 7 mph 1016.3mb 79f 77f
1:50 6ft 11s 9s 4 7 mph 1016.9mb 78f 77f
12:50 5ft 11s 8s 4 7 mph 1017.4mb 78f 76f
11:50 5ft 11s 8s 7 7 mph 1017.5mb 77f 76f
10:50 4.5ft 11s 8s 4 7 mph 1017.7mb 76f 76f
9:50 4.5ft 11s 8s 7 7 mph 1017.4mb 76f 75f
8:50 4.5ft 11s 8s 7 7 mph 1017.6mb 76f 75f
7:50 4.5ft 11s 8s 4 7 mph 1017.2mb 76f 75f
6:50 5ft 12s 8s 4 7 mph 1016.9mb 76f 74f
5:50 4.5ft 12s 8s 7 7 mph 1016.4mb 76f 74f
4:50 4.5ft 11s 8s 4 7 mph 1016.2mb 76f 74f
3:50 4.5ft 9s 8s 7 9 mph 1016.2mb 76f 74f
1:50 4.5ft 11s 7s 7 9 mph 1016.9mb 75f 75f
12:50 5ft 10s 8s 4 7 mph 1017.3mb 75f 75f
jue 09/21 11:50 4.5ft 10s 7s 4 7 mph 1017.3mb 75f 75f
10:50 4.5ft 10s 8s 7 7 mph 1017.4mb 75f 75f
9:50 5ft 11s 8s 9 11 mph 1016.7mb 75f 75f
8:50 5ft 11s 8s 9 11 mph 1016.3mb 76f 76f
7:50 5ft 11s 8s 11 13 mph 1015.8mb 76f 75f
6:50 5ft 10s 8s 11 13 mph 1015.5mb 76f 76f
5:50 4.5ft 10s 8s 11 13 mph 1015.1mb 78f 77f
4:50 5ft 10s 8s 4 7 mph 1015.4mb 79f 78f
3:50 5ft 11s 8s 4 7 mph 1015.4mb 78f 78f
2:50 5ft 11s 8s 4 7 mph 1015.5mb 78f 78f
1:50 5ft 11s 8s 4 4 mph 1016.1mb 78f 78f
12:50 4.5ft 11s 7s 4 7 mph 1016.4mb 77f 77f
11:50 4.5ft 9s 7s 4 7 mph 1016.7mb 77f 77f
10:50 4ft 11s 7s 4 7 mph 1016.8mb 76f 76f
9:50 4.5ft 10s 7s 4 4 mph 1016.7mb 75f 76f
8:50 4.5ft 10s 7s 4 4 mph 1016.2mb 75f 75f
7:50 4ft 9s 7s 4 4 mph 1015.7mb 75f 75f
6:50 4.5ft 10s 7s 2 2 mph 1015.2mb 75f 75f
5:50 4.5ft 10s 7s 2 4 mph 1014.9mb 75f 76f
4:50 4.5ft 10s 7s 4 4 mph 1014.7mb 76f 76f
3:50 4.5ft 10s 7s 4 4 mph 1014.5mb 76f 76f
2:50 5ft 10s 7s 2 4 mph 1014.9mb 75f 76f
1:50 4.5ft 11s 7s 4 7 mph 1015.1mb 75f 77f
12:50 4.5ft 11s 6s 2 2 mph 1015.3mb 75f 76f
mié 09/20 11:50 4.5ft 11s 6s 7 9 mph 1015.3mb 75f 77f
10:50 4.5ft 11s 7s 9 11 mph 1015.3mb 75f 77f
9:50 5ft 11s 7s 4 7 mph 1014.9mb 76f 77f
8:50 4.5ft 10s 7s 4 7 mph 1014.6mb 76f 76f
7:50 5ft 10s 7s 4 7 mph 1014.3mb 75f 77f
6:50 4ft 10s 6s 4 7 mph 1013.9mb 75f 77f
5:50 4.5ft 11s 7s 9 11 mph 1013.7mb 76f 78f
4:50 4ft 11s 6s 9 11 mph 1013.5mb 75f 77f
3:50 4.5ft 11s 7s 7 9 mph 1013.8mb 76f 78f
2:50 4.5ft 10s 6s 7 9 mph 1014.2mb 76f 77f
1:50 5ft 11s 7s 9 9 mph 1014.4mb 75f 76f
12:50 5ft 11s 7s 9 11 mph 1014.8mb 75f 75f
11:50 5.5ft 11s 7s 13 16 mph 1014.8mb 74f 75f
10:50 5.5ft 11s 7s 13 16 mph 1015mb 74f 76f
9:50 5ft 11s 7s 13 16 mph 1015.2mb 74f 76f
8:50 5ft 11s 6s 13 16 mph 1014.8mb 74f 75f
7:50 5ft 12s 6s 16 18 mph 1014.1mb 74f 75f
6:50 5.5ft 11s 6s 13 18 mph 1013.6mb 74f 75f
5:50 5.5ft 11s 7s 16 18 mph 1013mb 74f 75f